sensor_id;sensor_type;location;lat;lon;timestamp;P1;durP1;ratioP1;P2;durP2;ratioP2
52126;SDS011;38120;53.176;6.614;2023-12-20T00:02:18;12.50;;;3.07;;
52126;SDS011;38120;53.176;6.614;2023-12-20T00:04:44;16.83;;;4.45;;
52126;SDS011;38120;53.176;6.614;2023-12-20T00:07:10;11.53;;;3.97;;
52126;SDS011;38120;53.176;6.614;2023-12-20T00:09:35;11.90;;;3.70;;
52126;SDS011;38120;53.176;6.614;2023-12-20T00:12:01;11.57;;;3.63;;
52126;SDS011;38120;53.176;6.614;2023-12-20T00:14:27;10.83;;;3.83;;
52126;SDS011;38120;53.176;6.614;2023-12-20T00:16:53;16.00;;;4.03;;
52126;SDS011;38120;53.176;6.614;2023-12-20T00:19:19;26.65;;;5.00;;
52126;SDS011;38120;53.176;6.614;2023-12-20T00:21:45;11.88;;;3.85;;
52126;SDS011;38120;53.176;6.614;2023-12-20T00:24:10;11.57;;;3.70;;
52126;SDS011;38120;53.176;6.614;2023-12-20T00:26:36;18.53;;;3.67;;
52126;SDS011;38120;53.176;6.614;2023-12-20T00:29:01;17.20;;;3.53;;
52126;SDS011;38120;53.176;6.614;2023-12-20T00:31:27;13.18;;;4.88;;
52126;SDS011;38120;53.176;6.614;2023-12-20T00:33:53;15.30;;;4.33;;
52126;SDS011;38120;53.176;6.614;2023-12-20T00:36:19;13.93;;;4.22;;
52126;SDS011;38120;53.176;6.614;2023-12-20T00:38:45;17.67;;;4.30;;
52126;SDS011;38120;53.176;6.614;2023-12-20T00:41:11;12.13;;;3.80;;
52126;SDS011;38120;53.176;6.614;2023-12-20T00:43:36;16.27;;;3.80;;
52126;SDS011;38120;53.176;6.614;2023-12-20T00:46:02;14.07;;;4.37;;
52126;SDS011;38120;53.176;6.614;2023-12-20T00:48:28;11.48;;;3.47;;
52126;SDS011;38120;53.176;6.614;2023-12-20T00:50:56;16.85;;;5.65;;
52126;SDS011;38120;53.176;6.614;2023-12-20T00:55:48;12.85;;;4.30;;
52126;SDS011;38120;53.176;6.614;2023-12-20T00:58:15;12.77;;;3.50;;
52126;SDS011;38120;53.176;6.614;2023-12-20T01:00:40;14.75;;;4.40;;
52126;SDS011;38120;53.176;6.614;2023-12-20T01:03:10;14.20;;;4.03;;
52126;SDS011;38120;53.176;6.614;2023-12-20T01:05:36;13.37;;;3.80;;
52126;SDS011;38120;53.176;6.614;2023-12-20T01:08:01;15.57;;;4.20;;
52126;SDS011;38120;53.176;6.614;2023-12-20T01:10:28;12.10;;;4.20;;
52126;SDS011;38120;53.176;6.614;2023-12-20T01:12:54;16.63;;;4.25;;
52126;SDS011;38120;53.176;6.614;2023-12-20T01:15:20;17.83;;;4.55;;
52126;SDS011;38120;53.176;6.614;2023-12-20T01:17:46;14.03;;;3.97;;
52126;SDS011;38120;53.176;6.614;2023-12-20T01:20:12;13.98;;;4.55;;
52126;SDS011;38120;53.176;6.614;2023-12-20T01:22:38;14.57;;;4.43;;
52126;SDS011;38120;53.176;6.614;2023-12-20T01:25:04;18.42;;;4.38;;
52126;SDS011;38120;53.176;6.614;2023-12-20T01:27:30;18.98;;;4.78;;
52126;SDS011;38120;53.176;6.614;2023-12-20T01:29:56;20.90;;;5.32;;
52126;SDS011;38120;53.176;6.614;2023-12-20T01:32:22;17.48;;;4.15;;
52126;SDS011;38120;53.176;6.614;2023-12-20T01:34:47;16.80;;;5.30;;
52126;SDS011;38120;53.176;6.614;2023-12-20T01:37:13;21.15;;;4.22;;
52126;SDS011;38120;53.176;6.614;2023-12-20T01:39:39;16.13;;;4.85;;
52126;SDS011;38120;53.176;6.614;2023-12-20T01:42:05;25.00;;;5.67;;
52126;SDS011;38120;53.176;6.614;2023-12-20T01:44:30;12.23;;;3.73;;
52126;SDS011;38120;53.176;6.614;2023-12-20T01:46:56;16.80;;;4.97;;
52126;SDS011;38120;53.176;6.614;2023-12-20T01:49:22;15.35;;;4.57;;
52126;SDS011;38120;53.176;6.614;2023-12-20T01:51:48;13.00;;;4.25;;
52126;SDS011;38120;53.176;6.614;2023-12-20T01:56:41;15.35;;;4.82;;
52126;SDS011;38120;53.176;6.614;2023-12-20T01:59:07;14.45;;;4.65;;
52126;SDS011;38120;53.176;6.614;2023-12-20T02:01:34;10.15;;;4.18;;
52126;SDS011;38120;53.176;6.614;2023-12-20T02:06:28;11.90;;;3.67;;
52126;SDS011;38120;53.176;6.614;2023-12-20T02:08:57;11.43;;;3.58;;
52126;SDS011;38120;53.176;6.614;2023-12-20T02:11:23;15.70;;;3.85;;
52126;SDS011;38120;53.176;6.614;2023-12-20T02:16:15;10.15;;;3.42;;
52126;SDS011;38120;53.176;6.614;2023-12-20T02:18:42;10.82;;;3.67;;
52126;SDS011;38120;53.176;6.614;2023-12-20T02:21:09;15.85;;;4.10;;
52126;SDS011;38120;53.176;6.614;2023-12-20T02:23:35;16.30;;;4.32;;
52126;SDS011;38120;53.176;6.614;2023-12-20T02:26:01;16.73;;;4.07;;
52126;SDS011;38120;53.176;6.614;2023-12-20T02:28:28;12.43;;;4.18;;
52126;SDS011;38120;53.176;6.614;2023-12-20T02:30:54;21.70;;;4.97;;
52126;SDS011;38120;53.176;6.614;2023-12-20T02:33:20;11.70;;;4.50;;
52126;SDS011;38120;53.176;6.614;2023-12-20T02:35:45;17.03;;;4.40;;
52126;SDS011;38120;53.176;6.614;2023-12-20T02:38:12;22.33;;;6.47;;
52126;SDS011;38120;53.176;6.614;2023-12-20T02:40:38;20.90;;;6.03;;
52126;SDS011;38120;53.176;6.614;2023-12-20T02:43:03;19.20;;;5.40;;
52126;SDS011;38120;53.176;6.614;2023-12-20T02:45:29;24.77;;;6.40;;
52126;SDS011;38120;53.176;6.614;2023-12-20T02:47:55;19.88;;;6.38;;
52126;SDS011;38120;53.176;6.614;2023-12-20T02:50:21;29.10;;;7.53;;
52126;SDS011;38120;53.176;6.614;2023-12-20T02:52:47;21.75;;;6.55;;
52126;SDS011;38120;53.176;6.614;2023-12-20T02:55:12;20.80;;;7.13;;
52126;SDS011;38120;53.176;6.614;2023-12-20T02:57:38;23.83;;;6.80;;
52126;SDS011;38120;53.176;6.614;2023-12-20T03:00:08;21.17;;;6.45;;
52126;SDS011;38120;53.176;6.614;2023-12-20T03:02:34;24.92;;;6.95;;
52126;SDS011;38120;53.176;6.614;2023-12-20T03:05:00;31.70;;;7.93;;
52126;SDS011;38120;53.176;6.614;2023-12-20T03:07:26;25.27;;;7.55;;
52126;SDS011;38120;53.176;6.614;2023-12-20T03:09:52;28.17;;;8.63;;
52126;SDS011;38120;53.176;6.614;2023-12-20T03:12:18;21.57;;;6.60;;
52126;SDS011;38120;53.176;6.614;2023-12-20T03:14:44;24.57;;;7.47;;
52126;SDS011;38120;53.176;6.614;2023-12-20T03:17:10;21.20;;;6.57;;
52126;SDS011;38120;53.176;6.614;2023-12-20T03:19:40;19.75;;;6.85;;
52126;SDS011;38120;53.176;6.614;2023-12-20T03:22:05;27.83;;;7.53;;
52126;SDS011;38120;53.176;6.614;2023-12-20T03:24:31;25.87;;;7.00;;
52126;SDS011;38120;53.176;6.614;2023-12-20T03:26:57;27.27;;;7.03;;
52126;SDS011;38120;53.176;6.614;2023-12-20T03:29:22;19.20;;;6.65;;
52126;SDS011;38120;53.176;6.614;2023-12-20T03:31:48;25.48;;;7.22;;
52126;SDS011;38120;53.176;6.614;2023-12-20T03:34:14;28.33;;;7.07;;
52126;SDS011;38120;53.176;6.614;2023-12-20T03:36:40;25.83;;;6.77;;
52126;SDS011;38120;53.176;6.614;2023-12-20T03:39:05;22.40;;;7.80;;
52126;SDS011;38120;53.176;6.614;2023-12-20T03:41:31;25.67;;;6.93;;
52126;SDS011;38120;53.176;6.614;2023-12-20T03:43:57;17.23;;;5.97;;
52126;SDS011;38120;53.176;6.614;2023-12-20T03:46:22;24.43;;;8.00;;
52126;SDS011;38120;53.176;6.614;2023-12-20T03:48:48;27.00;;;6.97;;
52126;SDS011;38120;53.176;6.614;2023-12-20T03:51:13;27.20;;;7.43;;
52126;SDS011;38120;53.176;6.614;2023-12-20T03:53:39;25.30;;;7.27;;
52126;SDS011;38120;53.176;6.614;2023-12-20T03:56:05;23.52;;;9.07;;
52126;SDS011;38120;53.176;6.614;2023-12-20T03:58:31;25.25;;;8.40;;
52126;SDS011;38120;53.176;6.614;2023-12-20T04:00:57;28.10;;;8.87;;
52126;SDS011;38120;53.176;6.614;2023-12-20T04:03:22;19.57;;;7.13;;
52126;SDS011;38120;53.176;6.614;2023-12-20T04:05:48;31.37;;;7.33;;
52126;SDS011;38120;53.176;6.614;2023-12-20T04:08:14;24.30;;;8.00;;
52126;SDS011;38120;53.176;6.614;2023-12-20T04:10:39;24.10;;;7.50;;
52126;SDS011;38120;53.176;6.614;2023-12-20T04:13:05;16.85;;;7.30;;
52126;SDS011;38120;53.176;6.614;2023-12-20T04:15:31;24.70;;;7.03;;
52126;SDS011;38120;53.176;6.614;2023-12-20T04:17:57;27.83;;;7.50;;
52126;SDS011;38120;53.176;6.614;2023-12-20T04:20:22;20.27;;;6.90;;
52126;SDS011;38120;53.176;6.614;2023-12-20T04:22:48;28.37;;;8.13;;
52126;SDS011;38120;53.176;6.614;2023-12-20T04:25:13;32.10;;;8.90;;
52126;SDS011;38120;53.176;6.614;2023-12-20T04:27:39;28.13;;;8.27;;
52126;SDS011;38120;53.176;6.614;2023-12-20T04:30:05;22.57;;;7.60;;
52126;SDS011;38120;53.176;6.614;2023-12-20T04:32:31;23.90;;;7.25;;
52126;SDS011;38120;53.176;6.614;2023-12-20T04:34:57;22.97;;;8.13;;
52126;SDS011;38120;53.176;6.614;2023-12-20T04:37:23;24.38;;;6.55;;
52126;SDS011;38120;53.176;6.614;2023-12-20T04:39:49;29.17;;;7.63;;
52126;SDS011;38120;53.176;6.614;2023-12-20T04:42:15;28.52;;;7.57;;
52126;SDS011;38120;53.176;6.614;2023-12-20T04:44:40;26.73;;;7.53;;
52126;SDS011;38120;53.176;6.614;2023-12-20T04:47:06;18.87;;;7.53;;
52126;SDS011;38120;53.176;6.614;2023-12-20T04:49:32;25.10;;;7.07;;
52126;SDS011;38120;53.176;6.614;2023-12-20T04:51:57;22.20;;;6.03;;
52126;SDS011;38120;53.176;6.614;2023-12-20T04:54:23;33.57;;;8.70;;
52126;SDS011;38120;53.176;6.614;2023-12-20T04:56:49;21.23;;;7.33;;
52126;SDS011;38120;53.176;6.614;2023-12-20T04:59:15;21.00;;;5.97;;
52126;SDS011;38120;53.176;6.614;2023-12-20T05:01:40;24.57;;;6.50;;
52126;SDS011;38120;53.176;6.614;2023-12-20T05:04:06;21.20;;;7.40;;
52126;SDS011;38120;53.176;6.614;2023-12-20T05:06:32;24.37;;;7.67;;
52126;SDS011;38120;53.176;6.614;2023-12-20T05:08:58;20.90;;;6.65;;
52126;SDS011;38120;53.176;6.614;2023-12-20T05:11:23;24.10;;;7.37;;
52126;SDS011;38120;53.176;6.614;2023-12-20T05:13:49;20.83;;;6.57;;
52126;SDS011;38120;53.176;6.614;2023-12-20T05:16:15;25.97;;;8.00;;
52126;SDS011;38120;53.176;6.614;2023-12-20T05:18:43;27.42;;;7.72;;
52126;SDS011;38120;53.176;6.614;2023-12-20T05:21:08;21.52;;;7.57;;
52126;SDS011;38120;53.176;6.614;2023-12-20T05:23:34;27.17;;;8.05;;
52126;SDS011;38120;53.176;6.614;2023-12-20T05:26:00;19.27;;;7.60;;
52126;SDS011;38120;53.176;6.614;2023-12-20T05:28:26;21.80;;;7.33;;
52126;SDS011;38120;53.176;6.614;2023-12-20T05:30:51;37.47;;;8.73;;
52126;SDS011;38120;53.176;6.614;2023-12-20T05:33:17;28.93;;;7.27;;
52126;SDS011;38120;53.176;6.614;2023-12-20T05:35:43;25.37;;;7.73;;
52126;SDS011;38120;53.176;6.614;2023-12-20T05:38:08;25.70;;;7.57;;
52126;SDS011;38120;53.176;6.614;2023-12-20T05:40:34;28.90;;;7.37;;
52126;SDS011;38120;53.176;6.614;2023-12-20T05:43:00;21.27;;;6.70;;
52126;SDS011;38120;53.176;6.614;2023-12-20T05:45:25;29.30;;;8.40;;
52126;SDS011;38120;53.176;6.614;2023-12-20T05:47:51;28.03;;;8.00;;
52126;SDS011;38120;53.176;6.614;2023-12-20T05:50:17;31.73;;;7.37;;
52126;SDS011;38120;53.176;6.614;2023-12-20T05:52:42;36.33;;;7.47;;
52126;SDS011;38120;53.176;6.614;2023-12-20T05:55:08;20.53;;;6.30;;
52126;SDS011;38120;53.176;6.614;2023-12-20T05:57:34;28.93;;;7.97;;
52126;SDS011;38120;53.176;6.614;2023-12-20T06:00:00;20.42;;;7.40;;
52126;SDS011;38120;53.176;6.614;2023-12-20T06:02:26;25.03;;;7.23;;
52126;SDS011;38120;53.176;6.614;2023-12-20T06:04:51;24.40;;;9.43;;
52126;SDS011;38120;53.176;6.614;2023-12-20T06:07:17;23.03;;;8.37;;
52126;SDS011;38120;53.176;6.614;2023-12-20T06:09:43;25.57;;;7.10;;
52126;SDS011;38120;53.176;6.614;2023-12-20T06:12:08;29.03;;;8.03;;
52126;SDS011;38120;53.176;6.614;2023-12-20T06:14:34;30.38;;;8.40;;
52126;SDS011;38120;53.176;6.614;2023-12-20T06:17:00;29.03;;;7.83;;
52126;SDS011;38120;53.176;6.614;2023-12-20T06:19:26;28.25;;;8.00;;
52126;SDS011;38120;53.176;6.614;2023-12-20T06:21:52;28.38;;;7.95;;
52126;SDS011;38120;53.176;6.614;2023-12-20T06:24:18;27.70;;;7.45;;
52126;SDS011;38120;53.176;6.614;2023-12-20T06:26:44;30.20;;;7.27;;
52126;SDS011;38120;53.176;6.614;2023-12-20T06:29:10;27.77;;;7.97;;
52126;SDS011;38120;53.176;6.614;2023-12-20T06:31:35;27.23;;;8.67;;
52126;SDS011;38120;53.176;6.614;2023-12-20T06:34:01;29.53;;;7.93;;
52126;SDS011;38120;53.176;6.614;2023-12-20T06:36:27;36.30;;;8.20;;
52126;SDS011;38120;53.176;6.614;2023-12-20T06:38:53;19.58;;;7.28;;
52126;SDS011;38120;53.176;6.614;2023-12-20T06:41:18;26.52;;;6.50;;
52126;SDS011;38120;53.176;6.614;2023-12-20T06:43:44;23.13;;;6.85;;
52126;SDS011;38120;53.176;6.614;2023-12-20T06:46:10;22.20;;;7.43;;
52126;SDS011;38120;53.176;6.614;2023-12-20T06:48:38;26.45;;;6.80;;
52126;SDS011;38120;53.176;6.614;2023-12-20T06:51:04;27.10;;;7.90;;
52126;SDS011;38120;53.176;6.614;2023-12-20T06:53:30;24.45;;;7.22;;
52126;SDS011;38120;53.176;6.614;2023-12-20T06:55:56;21.77;;;6.53;;
52126;SDS011;38120;53.176;6.614;2023-12-20T06:58:22;19.13;;;6.70;;
52126;SDS011;38120;53.176;6.614;2023-12-20T07:00:48;24.23;;;6.57;;
52126;SDS011;38120;53.176;6.614;2023-12-20T07:03:14;29.35;;;7.75;;
52126;SDS011;38120;53.176;6.614;2023-12-20T07:05:39;30.50;;;7.97;;
52126;SDS011;38120;53.176;6.614;2023-12-20T07:08:06;26.63;;;6.68;;
52126;SDS011;38120;53.176;6.614;2023-12-20T07:10:33;28.33;;;8.07;;
52126;SDS011;38120;53.176;6.614;2023-12-20T07:12:59;23.70;;;7.87;;
52126;SDS011;38120;53.176;6.614;2023-12-20T07:15:25;31.10;;;6.90;;
52126;SDS011;38120;53.176;6.614;2023-12-20T07:17:51;27.35;;;7.43;;
52126;SDS011;38120;53.176;6.614;2023-12-20T07:20:18;28.70;;;7.50;;
52126;SDS011;38120;53.176;6.614;2023-12-20T07:22:43;30.03;;;7.87;;
52126;SDS011;38120;53.176;6.614;2023-12-20T07:25:09;18.53;;;6.33;;
52126;SDS011;38120;53.176;6.614;2023-12-20T07:27:35;35.88;;;6.80;;
52126;SDS011;38120;53.176;6.614;2023-12-20T07:30:01;26.53;;;8.17;;
52126;SDS011;38120;53.176;6.614;2023-12-20T07:32:27;19.55;;;7.60;;
52126;SDS011;38120;53.176;6.614;2023-12-20T07:34:53;25.07;;;7.57;;
52126;SDS011;38120;53.176;6.614;2023-12-20T07:37:19;19.55;;;8.20;;
52126;SDS011;38120;53.176;6.614;2023-12-20T07:39:46;28.38;;;7.35;;
52126;SDS011;38120;53.176;6.614;2023-12-20T07:42:11;23.50;;;6.45;;
52126;SDS011;38120;53.176;6.614;2023-12-20T07:44:37;21.87;;;6.70;;
52126;SDS011;38120;53.176;6.614;2023-12-20T07:47:03;28.23;;;8.40;;
52126;SDS011;38120;53.176;6.614;2023-12-20T07:49:30;19.92;;;6.32;;
52126;SDS011;38120;53.176;6.614;2023-12-20T07:51:56;27.65;;;6.97;;
52126;SDS011;38120;53.176;6.614;2023-12-20T07:54:22;23.13;;;7.13;;
52126;SDS011;38120;53.176;6.614;2023-12-20T07:56:48;23.50;;;7.43;;
52126;SDS011;38120;53.176;6.614;2023-12-20T07:59:14;23.40;;;6.60;;
52126;SDS011;38120;53.176;6.614;2023-12-20T08:01:40;24.13;;;6.73;;
52126;SDS011;38120;53.176;6.614;2023-12-20T08:04:07;23.10;;;7.57;;
52126;SDS011;38120;53.176;6.614;2023-12-20T08:06:33;25.35;;;6.78;;
52126;SDS011;38120;53.176;6.614;2023-12-20T08:08:58;20.23;;;6.13;;
52126;SDS011;38120;53.176;6.614;2023-12-20T08:11:24;23.07;;;6.40;;
52126;SDS011;38120;53.176;6.614;2023-12-20T08:13:50;22.67;;;6.63;;
52126;SDS011;38120;53.176;6.614;2023-12-20T08:16:16;20.58;;;5.40;;
52126;SDS011;38120;53.176;6.614;2023-12-20T08:18:42;17.85;;;5.78;;
52126;SDS011;38120;53.176;6.614;2023-12-20T08:21:08;25.67;;;6.55;;
52126;SDS011;38120;53.176;6.614;2023-12-20T08:23:34;20.30;;;6.03;;
52126;SDS011;38120;53.176;6.614;2023-12-20T08:26:07;25.52;;;7.15;;
52126;SDS011;38120;53.176;6.614;2023-12-20T08:28:33;21.98;;;6.68;;
52126;SDS011;38120;53.176;6.614;2023-12-20T08:30:59;23.73;;;6.68;;
52126;SDS011;38120;53.176;6.614;2023-12-20T08:33:25;18.25;;;6.13;;
52126;SDS011;38120;53.176;6.614;2023-12-20T08:35:51;16.10;;;5.37;;
52126;SDS011;38120;53.176;6.614;2023-12-20T08:38:16;15.77;;;5.10;;
52126;SDS011;38120;53.176;6.614;2023-12-20T08:40:43;20.48;;;6.63;;
52126;SDS011;38120;53.176;6.614;2023-12-20T08:43:09;27.95;;;7.10;;
52126;SDS011;38120;53.176;6.614;2023-12-20T08:45:35;16.73;;;5.57;;
52126;SDS011;38120;53.176;6.614;2023-12-20T08:48:00;23.67;;;6.07;;
52126;SDS011;38120;53.176;6.614;2023-12-20T08:50:26;16.23;;;5.00;;
52126;SDS011;38120;53.176;6.614;2023-12-20T08:52:52;8.70;;;2.13;;
52126;SDS011;38120;53.176;6.614;2023-12-20T08:55:19;11.67;;;3.57;;
52126;SDS011;38120;53.176;6.614;2023-12-20T08:57:45;9.02;;;2.38;;
52126;SDS011;38120;53.176;6.614;2023-12-20T09:00:11;7.65;;;2.15;;
52126;SDS011;38120;53.176;6.614;2023-12-20T09:02:37;7.10;;;1.90;;
52126;SDS011;38120;53.176;6.614;2023-12-20T09:07:29;7.60;;;2.30;;
52126;SDS011;38120;53.176;6.614;2023-12-20T09:09:57;19.15;;;3.70;;
52126;SDS011;38120;53.176;6.614;2023-12-20T09:12:24;14.95;;;2.83;;
52126;SDS011;38120;53.176;6.614;2023-12-20T09:14:50;15.68;;;4.13;;
52126;SDS011;38120;53.176;6.614;2023-12-20T09:17:17;11.10;;;3.15;;
52126;SDS011;38120;53.176;6.614;2023-12-20T09:19:44;11.15;;;3.25;;
52126;SDS011;38120;53.176;6.614;2023-12-20T09:22:10;15.48;;;4.05;;
52126;SDS011;38120;53.176;6.614;2023-12-20T09:24:37;14.85;;;4.03;;
52126;SDS011;38120;53.176;6.614;2023-12-20T09:27:04;14.27;;;3.30;;
52126;SDS011;38120;53.176;6.614;2023-12-20T09:29:30;10.82;;;3.08;;
52126;SDS011;38120;53.176;6.614;2023-12-20T09:31:56;5.35;;;2.50;;
52126;SDS011;38120;53.176;6.614;2023-12-20T09:34:22;9.35;;;2.40;;
52126;SDS011;38120;53.176;6.614;2023-12-20T09:39:15;11.68;;;2.72;;
52126;SDS011;38120;53.176;6.614;2023-12-20T09:41:44;8.00;;;2.35;;
52126;SDS011;38120;53.176;6.614;2023-12-20T09:44:13;7.03;;;1.60;;
52126;SDS011;38120;53.176;6.614;2023-12-20T09:46:50;7.15;;;1.92;;
52126;SDS011;38120;53.176;6.614;2023-12-20T09:49:19;5.45;;;2.03;;
52126;SDS011;38120;53.176;6.614;2023-12-20T09:51:46;8.73;;;1.92;;
52126;SDS011;38120;53.176;6.614;2023-12-20T09:56:42;7.63;;;1.27;;
52126;SDS011;38120;53.176;6.614;2023-12-20T09:59:08;8.80;;;2.28;;
52126;SDS011;38120;53.176;6.614;2023-12-20T10:01:34;9.23;;;2.53;;
52126;SDS011;38120;53.176;6.614;2023-12-20T10:04:01;7.05;;;2.05;;
52126;SDS011;38120;53.176;6.614;2023-12-20T10:06:41;7.55;;;2.15;;
52126;SDS011;38120;53.176;6.614;2023-12-20T10:09:07;8.73;;;2.50;;
52126;SDS011;38120;53.176;6.614;2023-12-20T10:11:35;14.80;;;2.08;;
52126;SDS011;38120;53.176;6.614;2023-12-20T10:14:04;12.60;;;2.58;;
52126;SDS011;38120;53.176;6.614;2023-12-20T10:16:33;9.05;;;2.38;;
52126;SDS011;38120;53.176;6.614;2023-12-20T10:18:59;11.73;;;2.80;;
52126;SDS011;38120;53.176;6.614;2023-12-20T10:21:29;5.53;;;2.60;;
52126;SDS011;38120;53.176;6.614;2023-12-20T10:23:55;7.63;;;2.53;;
52126;SDS011;38120;53.176;6.614;2023-12-20T10:26:23;12.85;;;3.05;;
52126;SDS011;38120;53.176;6.614;2023-12-20T10:28:50;14.32;;;2.55;;
52126;SDS011;38120;53.176;6.614;2023-12-20T10:31:29;9.27;;;2.22;;
52126;SDS011;38120;53.176;6.614;2023-12-20T10:33:57;7.25;;;3.08;;
52126;SDS011;38120;53.176;6.614;2023-12-20T10:36:27;9.95;;;3.38;;
52126;SDS011;38120;53.176;6.614;2023-12-20T10:38:58;7.68;;;2.90;;
52126;SDS011;38120;53.176;6.614;2023-12-20T10:41:27;8.57;;;2.72;;
52126;SDS011;38120;53.176;6.614;2023-12-20T10:43:56;14.45;;;3.90;;
52126;SDS011;38120;53.176;6.614;2023-12-20T10:46:29;11.52;;;3.17;;
52126;SDS011;38120;53.176;6.614;2023-12-20T10:48:56;9.02;;;2.85;;
52126;SDS011;38120;53.176;6.614;2023-12-20T10:51:23;12.02;;;3.88;;
52126;SDS011;38120;53.176;6.614;2023-12-20T10:53:52;8.80;;;2.95;;
52126;SDS011;38120;53.176;6.614;2023-12-20T10:56:18;11.73;;;3.60;;
52126;SDS011;38120;53.176;6.614;2023-12-20T10:58:46;11.20;;;3.17;;
52126;SDS011;38120;53.176;6.614;2023-12-20T11:01:15;21.38;;;4.18;;
52126;SDS011;38120;53.176;6.614;2023-12-20T11:03:52;14.90;;;3.97;;
52126;SDS011;38120;53.176;6.614;2023-12-20T11:11:57;18.30;;;4.13;;
52126;SDS011;38120;53.176;6.614;2023-12-20T11:14:39;13.93;;;4.32;;
52126;SDS011;38120;53.176;6.614;2023-12-20T11:17:09;10.50;;;3.42;;
52126;SDS011;38120;53.176;6.614;2023-12-20T11:22:24;19.30;;;4.10;;
52126;SDS011;38120;53.176;6.614;2023-12-20T11:24:51;11.50;;;4.20;;
52126;SDS011;38120;53.176;6.614;2023-12-20T11:27:18;17.92;;;4.35;;
52126;SDS011;38120;53.176;6.614;2023-12-20T11:29:51;19.05;;;4.45;;
52126;SDS011;38120;53.176;6.614;2023-12-20T11:34:50;12.30;;;4.22;;
52126;SDS011;38120;53.176;6.614;2023-12-20T11:37:16;12.75;;;3.95;;
52126;SDS011;38120;53.176;6.614;2023-12-20T11:39:45;16.15;;;4.40;;
52126;SDS011;38120;53.176;6.614;2023-12-20T11:42:10;12.80;;;4.35;;
52126;SDS011;38120;53.176;6.614;2023-12-20T11:44:36;13.00;;;4.00;;
52126;SDS011;38120;53.176;6.614;2023-12-20T11:47:02;13.65;;;3.80;;
52126;SDS011;38120;53.176;6.614;2023-12-20T11:49:28;15.23;;;3.83;;
52126;SDS011;38120;53.176;6.614;2023-12-20T11:51:56;16.25;;;3.78;;
52126;SDS011;38120;53.176;6.614;2023-12-20T11:54:22;13.75;;;3.70;;
52126;SDS011;38120;53.176;6.614;2023-12-20T11:56:47;11.18;;;3.72;;
52126;SDS011;38120;53.176;6.614;2023-12-20T11:59:13;14.85;;;3.97;;
52126;SDS011;38120;53.176;6.614;2023-12-20T12:01:40;10.10;;;4.22;;
52126;SDS011;38120;53.176;6.614;2023-12-20T12:04:12;20.70;;;4.57;;
52126;SDS011;38120;53.176;6.614;2023-12-20T12:06:39;14.77;;;4.03;;
52126;SDS011;38120;53.176;6.614;2023-12-20T12:09:04;16.70;;;4.20;;
52126;SDS011;38120;53.176;6.614;2023-12-20T12:11:30;18.23;;;4.60;;
52126;SDS011;38120;53.176;6.614;2023-12-20T12:13:56;20.17;;;4.57;;
52126;SDS011;38120;53.176;6.614;2023-12-20T12:16:22;12.45;;;3.90;;
52126;SDS011;38120;53.176;6.614;2023-12-20T12:18:57;21.70;;;4.90;;
52126;SDS011;38120;53.176;6.614;2023-12-20T12:21:23;15.73;;;3.95;;
52126;SDS011;38120;53.176;6.614;2023-12-20T12:23:49;18.23;;;3.58;;
52126;SDS011;38120;53.176;6.614;2023-12-20T12:26:15;16.10;;;3.72;;
52126;SDS011;38120;53.176;6.614;2023-12-20T12:28:41;17.65;;;3.97;;
52126;SDS011;38120;53.176;6.614;2023-12-20T12:31:08;13.55;;;3.72;;
52126;SDS011;38120;53.176;6.614;2023-12-20T12:33:38;15.18;;;4.47;;
52126;SDS011;38120;53.176;6.614;2023-12-20T12:36:06;13.07;;;4.45;;
52126;SDS011;38120;53.176;6.614;2023-12-20T12:38:32;12.63;;;4.68;;
52126;SDS011;38120;53.176;6.614;2023-12-20T12:40:59;13.13;;;4.40;;
52126;SDS011;38120;53.176;6.614;2023-12-20T12:43:25;17.63;;;4.13;;
52126;SDS011;38120;53.176;6.614;2023-12-20T12:45:51;14.05;;;4.15;;
52126;SDS011;38120;53.176;6.614;2023-12-20T12:48:17;15.02;;;3.42;;
52126;SDS011;38120;53.176;6.614;2023-12-20T12:50:43;14.77;;;3.50;;
52126;SDS011;38120;53.176;6.614;2023-12-20T12:53:10;14.38;;;3.55;;
52126;SDS011;38120;53.176;6.614;2023-12-20T12:55:36;10.97;;;3.93;;
52126;SDS011;38120;53.176;6.614;2023-12-20T12:58:01;16.10;;;3.97;;
52126;SDS011;38120;53.176;6.614;2023-12-20T13:00:27;15.75;;;3.15;;
52126;SDS011;38120;53.176;6.614;2023-12-20T13:02:53;13.43;;;3.78;;
52126;SDS011;38120;53.176;6.614;2023-12-20T13:05:19;17.50;;;3.67;;
52126;SDS011;38120;53.176;6.614;2023-12-20T13:07:45;12.73;;;3.20;;
52126;SDS011;38120;53.176;6.614;2023-12-20T13:10:11;15.00;;;3.97;;
52126;SDS011;38120;53.176;6.614;2023-12-20T13:12:36;20.03;;;4.27;;
52126;SDS011;38120;53.176;6.614;2023-12-20T13:15:02;12.13;;;3.97;;
52126;SDS011;38120;53.176;6.614;2023-12-20T13:17:31;16.50;;;4.55;;
52126;SDS011;38120;53.176;6.614;2023-12-20T13:19:57;20.20;;;5.30;;
52126;SDS011;38120;53.176;6.614;2023-12-20T13:22:22;12.57;;;4.20;;
52126;SDS011;38120;53.176;6.614;2023-12-20T13:24:48;19.70;;;5.45;;
52126;SDS011;38120;53.176;6.614;2023-12-20T13:27:14;12.87;;;4.43;;
52126;SDS011;38120;53.176;6.614;2023-12-20T13:29:40;22.63;;;4.20;;
52126;SDS011;38120;53.176;6.614;2023-12-20T13:32:06;25.43;;;5.73;;
52126;SDS011;38120;53.176;6.614;2023-12-20T13:34:31;14.32;;;4.65;;
52126;SDS011;38120;53.176;6.614;2023-12-20T13:36:57;13.93;;;4.07;;
52126;SDS011;38120;53.176;6.614;2023-12-20T13:39:23;14.60;;;3.70;;
52126;SDS011;38120;53.176;6.614;2023-12-20T13:41:49;11.67;;;4.23;;
52126;SDS011;38120;53.176;6.614;2023-12-20T13:44:14;15.77;;;4.33;;
52126;SDS011;38120;53.176;6.614;2023-12-20T13:46:40;19.37;;;4.13;;
52126;SDS011;38120;53.176;6.614;2023-12-20T13:49:06;18.50;;;5.00;;
52126;SDS011;38120;53.176;6.614;2023-12-20T13:51:32;14.63;;;4.50;;
52126;SDS011;38120;53.176;6.614;2023-12-20T13:53:58;10.30;;;3.53;;
52126;SDS011;38120;53.176;6.614;2023-12-20T13:56:24;10.32;;;3.25;;
52126;SDS011;38120;53.176;6.614;2023-12-20T13:58:50;14.38;;;4.45;;
52126;SDS011;38120;53.176;6.614;2023-12-20T14:01:16;13.35;;;3.50;;
52126;SDS011;38120;53.176;6.614;2023-12-20T14:03:42;11.48;;;3.25;;
52126;SDS011;38120;53.176;6.614;2023-12-20T14:06:08;15.87;;;3.03;;
52126;SDS011;38120;53.176;6.614;2023-12-20T14:08:33;11.23;;;2.90;;
52126;SDS011;38120;53.176;6.614;2023-12-20T14:11:01;9.00;;;2.33;;
52126;SDS011;38120;53.176;6.614;2023-12-20T14:13:27;9.10;;;2.42;;
52126;SDS011;38120;53.176;6.614;2023-12-20T14:15:52;9.20;;;2.77;;
52126;SDS011;38120;53.176;6.614;2023-12-20T14:18:19;9.73;;;3.17;;
52126;SDS011;38120;53.176;6.614;2023-12-20T14:20:48;8.88;;;2.15;;
52126;SDS011;38120;53.176;6.614;2023-12-20T14:23:15;8.60;;;2.42;;
52126;SDS011;38120;53.176;6.614;2023-12-20T14:25:41;8.67;;;2.90;;
52126;SDS011;38120;53.176;6.614;2023-12-20T14:28:07;10.20;;;3.08;;
52126;SDS011;38120;53.176;6.614;2023-12-20T14:30:33;11.27;;;2.83;;
52126;SDS011;38120;53.176;6.614;2023-12-20T14:35:25;8.95;;;2.65;;
52126;SDS011;38120;53.176;6.614;2023-12-20T14:37:51;9.07;;;2.10;;
52126;SDS011;38120;53.176;6.614;2023-12-20T14:40:17;9.38;;;2.72;;
52126;SDS011;38120;53.176;6.614;2023-12-20T14:42:43;13.40;;;2.87;;
52126;SDS011;38120;53.176;6.614;2023-12-20T14:45:09;13.82;;;2.97;;
52126;SDS011;38120;53.176;6.614;2023-12-20T14:47:35;11.23;;;2.60;;
52126;SDS011;38120;53.176;6.614;2023-12-20T14:52:29;10.93;;;2.92;;
52126;SDS011;38120;53.176;6.614;2023-12-20T14:54:55;8.55;;;2.75;;
52126;SDS011;38120;53.176;6.614;2023-12-20T14:57:20;12.00;;;2.77;;
52126;SDS011;38120;53.176;6.614;2023-12-20T14:59:46;7.43;;;2.43;;
52126;SDS011;38120;53.176;6.614;2023-12-20T15:02:11;10.83;;;2.80;;
52126;SDS011;38120;53.176;6.614;2023-12-20T15:04:37;10.80;;;2.50;;